createdAt,value
2018-12-15T00:00:45.039Z,32.33
2018-12-15T00:03:32.469Z,26.23
2018-12-15T00:06:19.536Z,24.90
2018-12-15T00:09:07.273Z,23.97
2018-12-15T00:11:55.457Z,25.30
2018-12-15T00:14:43.148Z,22.17
2018-12-15T00:17:30.729Z,21.97
2018-12-15T00:20:18.798Z,22.47
2018-12-15T00:23:07.293Z,29.97
2018-12-15T00:25:54.743Z,25.23
2018-12-15T00:28:42.125Z,22.00
2018-12-15T00:31:29.430Z,21.10
2018-12-15T00:34:16.303Z,21.67
2018-12-15T00:37:03.484Z,20.93
2018-12-15T00:39:50.349Z,20.80
2018-12-15T00:42:37.122Z,20.63
2018-12-15T00:48:31.298Z,20.97
2018-12-15T00:51:18.443Z,29.00
2018-12-15T00:54:05.791Z,22.07
2018-12-15T00:56:55.105Z,20.33
2018-12-15T00:59:42.805Z,19.83
2018-12-15T01:02:31.183Z,19.00
2018-12-15T01:05:23.271Z,28.25
2018-12-15T01:08:11.814Z,21.20
2018-12-15T01:10:58.990Z,20.10
2018-12-15T01:13:46.325Z,19.77
2018-12-15T01:16:34.420Z,20.07
2018-12-15T01:19:21.434Z,20.30
2018-12-15T01:22:08.789Z,19.93
2018-12-15T01:24:56.419Z,19.50
2018-12-15T01:27:44.319Z,28.12
2018-12-15T01:30:31.930Z,20.57
2018-12-15T01:33:19.416Z,21.13
2018-12-15T01:36:07.248Z,20.10
2018-12-15T01:38:54.781Z,19.87
2018-12-15T01:41:42.162Z,18.60
2018-12-15T01:44:30.372Z,29.17
2018-12-15T01:47:18.175Z,23.00
2018-12-15T01:50:05.800Z,20.90
2018-12-15T01:52:53.373Z,19.40
2018-12-15T01:55:40.958Z,20.90
2018-12-15T01:58:28.443Z,22.07
2018-12-15T02:01:15.885Z,21.27
2018-12-15T02:04:03.359Z,22.67
2018-12-15T02:06:50.937Z,22.03
2018-12-15T02:09:38.755Z,21.43
2018-12-15T02:12:27.596Z,22.37
2018-12-15T02:15:15.195Z,23.23
2018-12-15T02:18:03.440Z,21.60
2018-12-15T02:20:53.661Z,23.43
2018-12-15T02:23:41.139Z,23.90
2018-12-15T02:26:29.121Z,24.87
2018-12-15T02:29:17.441Z,34.20
2018-12-15T02:32:05.174Z,35.22
2018-12-15T02:34:54.293Z,35.40
2018-12-15T02:37:41.393Z,25.90
2018-12-15T02:40:28.723Z,25.73
2018-12-15T02:43:25.485Z,24.70
2018-12-15T02:46:13.026Z,25.13
2018-12-15T02:49:03.139Z,25.43
2018-12-15T02:51:53.457Z,25.43
2018-12-15T02:54:46.025Z,35.83
2018-12-15T02:57:33.947Z,27.63
2018-12-15T03:00:21.802Z,25.73
2018-12-15T03:03:08.456Z,24.93
2018-12-15T03:05:55.368Z,26.37
2018-12-15T03:08:42.855Z,25.70
2018-12-15T03:11:30.663Z,25.40
2018-12-15T03:14:17.896Z,25.87
2018-12-15T03:17:13.407Z,25.07
2018-12-15T03:20:00.520Z,24.57
2018-12-15T03:22:50.209Z,25.43
2018-12-15T03:25:37.641Z,24.23
2018-12-15T03:28:26.811Z,26.07
2018-12-15T03:31:14.170Z,35.10
2018-12-15T03:34:02.255Z,27.23
2018-12-15T03:36:49.724Z,26.40
2018-12-15T03:39:36.993Z,25.13
2018-12-15T03:42:25.425Z,25.00
2018-12-15T03:45:12.605Z,35.80
2018-12-15T03:48:00.367Z,27.00
2018-12-15T03:50:47.799Z,35.65
2018-12-15T03:53:35.324Z,27.03
2018-12-15T03:56:22.745Z,27.87
2018-12-15T03:59:19.393Z,25.23
2018-12-15T04:02:06.452Z,25.23
2018-12-15T04:04:53.744Z,25.27
2018-12-15T04:07:41.067Z,24.77
2018-12-15T04:10:28.334Z,25.00
2018-12-15T04:13:15.713Z,25.13
2018-12-15T04:16:02.583Z,24.27
2018-12-15T04:18:50.621Z,25.30
2018-12-15T04:21:37.432Z,23.03
2018-12-15T04:24:25.042Z,23.23
2018-12-15T04:27:20.021Z,24.53
2018-12-15T04:30:07.213Z,22.47
2018-12-15T04:32:54.568Z,22.53
2018-12-15T04:35:41.568Z,21.43
2018-12-15T04:38:28.930Z,21.30
2018-12-15T04:41:15.736Z,22.17
2018-12-15T04:44:02.854Z,22.13
2018-12-15T04:46:50.445Z,22.10
2018-12-15T04:49:37.906Z,21.17
2018-12-15T04:52:24.828Z,22.53
2018-12-15T04:55:11.824Z,20.87
2018-12-15T04:57:59.151Z,21.23
2018-12-15T05:00:46.370Z,21.00
2018-12-15T05:03:33.415Z,20.80
2018-12-15T05:06:20.776Z,21.40
2018-12-15T05:09:08.231Z,20.33
2018-12-15T05:11:55.681Z,21.03
2018-12-15T05:14:43.265Z,19.60
2018-12-15T05:17:30.708Z,19.57
2018-12-15T05:20:18.716Z,19.10
2018-12-15T05:23:06.448Z,20.30
2018-12-15T05:25:56.318Z,18.73
2018-12-15T05:28:49.521Z,20.00
2018-12-15T05:31:36.694Z,19.10
2018-12-15T05:34:24.426Z,19.90
2018-12-15T05:37:11.433Z,18.97
2018-12-15T05:39:58.934Z,18.37
2018-12-15T05:42:47.191Z,19.60
2018-12-15T05:45:34.266Z,19.83
2018-12-15T05:48:25.079Z,19.53
2018-12-15T05:54:17.213Z,18.60
2018-12-15T05:57:06.100Z,18.33
2018-12-15T05:59:53.331Z,17.20
2018-12-15T06:02:40.702Z,23.05
2018-12-15T06:05:28.021Z,16.40
2018-12-15T06:08:14.976Z,14.90
2018-12-15T06:11:02.443Z,15.93
2018-12-15T06:13:49.683Z,14.43
2018-12-15T06:16:37.199Z,14.20
2018-12-15T06:19:24.256Z,15.93
2018-12-15T06:22:11.406Z,15.00
2018-12-15T06:24:59.062Z,15.97
2018-12-15T06:27:46.263Z,15.23
2018-12-15T06:30:36.746Z,15.30
2018-12-15T06:33:25.794Z,14.57
2018-12-15T06:36:12.750Z,15.90
2018-12-15T06:39:10.246Z,16.00
2018-12-15T06:41:57.113Z,15.17
2018-12-15T06:44:45.490Z,16.70
2018-12-15T06:47:33.425Z,14.30
2018-12-15T06:50:21.594Z,15.37
2018-12-15T06:53:08.708Z,14.63
2018-12-15T06:55:55.992Z,14.70
2018-12-15T06:58:43.446Z,14.40
2018-12-15T07:01:30.679Z,15.77
2018-12-15T07:04:18.170Z,14.00
2018-12-15T07:07:05.301Z,14.07
2018-12-15T07:09:53.141Z,13.80
2018-12-15T07:12:40.171Z,13.80
2018-12-15T07:15:28.182Z,13.30
2018-12-15T07:18:15.377Z,12.90
2018-12-15T07:21:05.117Z,12.60
2018-12-15T07:23:53.769Z,18.85
2018-12-15T07:26:41.866Z,13.50
2018-12-15T07:29:29.144Z,12.53
2018-12-15T07:32:16.687Z,12.23
2018-12-15T07:35:03.722Z,12.90
2018-12-15T07:37:52.076Z,12.20
2018-12-15T07:40:39.679Z,13.30
2018-12-15T07:43:32.691Z,12.83
2018-12-15T07:46:19.939Z,12.67
2018-12-15T07:49:07.227Z,12.90
2018-12-15T07:51:54.496Z,12.63
2018-12-15T07:54:41.948Z,12.70
2018-12-15T07:57:29.668Z,13.30
2018-12-15T08:00:19.676Z,17.05
2018-12-15T08:03:07.709Z,18.37
2018-12-15T08:05:54.739Z,13.90
2018-12-15T08:08:42.092Z,13.17
2018-12-15T08:11:47.524Z,13.23
2018-12-15T08:14:35.291Z,13.00
2018-12-15T08:17:31.228Z,13.47
2018-12-15T08:20:18.037Z,12.00
2018-12-15T08:23:05.781Z,13.23
2018-12-15T08:28:58.985Z,17.80
2018-12-15T08:31:46.500Z,14.87
2018-12-15T08:34:33.327Z,13.47
2018-12-15T08:37:20.185Z,13.93
2018-12-15T08:40:07.761Z,13.03
2018-12-15T08:42:55.196Z,20.10
2018-12-15T08:45:44.767Z,14.60
2018-12-15T08:48:33.253Z,14.40
2018-12-15T08:51:20.547Z,13.77
2018-12-15T08:54:11.601Z,14.10
2018-12-15T08:56:58.835Z,15.27
2018-12-15T08:59:46.114Z,13.60
2018-12-15T09:02:33.233Z,12.70
2018-12-15T09:05:20.456Z,18.25
2018-12-15T09:08:07.626Z,14.73
2018-12-15T09:10:54.777Z,20.30
2018-12-15T09:13:43.233Z,20.23
2018-12-15T09:16:30.549Z,19.85
2018-12-15T09:19:25.399Z,15.03
2018-12-15T09:22:12.254Z,15.57
2018-12-15T09:24:59.139Z,14.10
2018-12-15T09:27:46.529Z,14.10
2018-12-15T09:30:33.734Z,13.47
2018-12-15T09:33:21.838Z,14.10
2018-12-15T09:39:18.494Z,14.47
2018-12-15T09:42:07.134Z,13.27
2018-12-15T09:44:54.658Z,12.97
2018-12-15T09:50:47.346Z,14.10
2018-12-15T09:53:34.729Z,13.93
2018-12-15T09:56:21.537Z,14.77
2018-12-15T09:59:08.589Z,13.70
2018-12-15T10:01:55.674Z,14.57
2018-12-15T10:04:42.860Z,14.13
2018-12-15T10:07:29.995Z,14.07
2018-12-15T10:10:17.276Z,14.00
2018-12-15T10:13:04.452Z,13.07
2018-12-15T10:15:51.510Z,19.23
2018-12-15T10:18:38.360Z,18.92
2018-12-15T10:21:26.709Z,13.87
2018-12-15T10:24:13.786Z,14.13
2018-12-15T10:27:00.649Z,13.57
2018-12-15T10:30:05.967Z,14.70
2018-12-15T10:32:54.278Z,18.70
2018-12-15T10:35:41.212Z,15.10
2018-12-15T10:38:28.523Z,14.50
2018-12-15T10:41:15.374Z,14.53
2018-12-15T10:44:02.430Z,18.83
2018-12-15T10:46:50.081Z,15.03
2018-12-15T10:49:36.976Z,15.30
2018-12-15T10:52:24.115Z,13.97
2018-12-15T10:55:11.318Z,15.17
2018-12-15T10:57:58.637Z,14.63
2018-12-15T11:00:57.624Z,15.13
2018-12-15T11:03:44.578Z,19.75
2018-12-15T11:06:31.850Z,15.33
2018-12-15T11:09:19.182Z,15.60
2018-12-15T11:12:06.698Z,16.13
2018-12-15T11:14:56.999Z,15.00
2018-12-15T11:17:45.018Z,15.23
2018-12-15T11:20:32.248Z,15.10
2018-12-15T11:23:19.618Z,15.00
2018-12-15T11:26:07.404Z,16.13
2018-12-15T11:28:54.722Z,13.73
2018-12-15T11:34:49.724Z,15.33
2018-12-15T11:40:42.056Z,15.80
2018-12-15T11:43:30.835Z,15.27
2018-12-15T11:46:16.452Z,14.13
2018-12-15T11:49:03.545Z,15.03
2018-12-15T11:54:57.116Z,14.73
2018-12-15T11:57:50.307Z,15.23
2018-12-15T12:00:40.003Z,15.13
2018-12-15T12:03:26.998Z,14.73
2018-12-15T12:06:14.100Z,15.70
2018-12-15T12:09:01.490Z,13.97
2018-12-15T12:11:49.023Z,19.67
2018-12-15T12:14:36.165Z,15.53
2018-12-15T12:17:23.010Z,13.43
2018-12-15T12:20:10.016Z,14.07
2018-12-15T12:22:57.114Z,14.23
2018-12-15T12:25:46.380Z,14.20
2018-12-15T12:28:34.338Z,12.83
2018-12-15T12:31:21.352Z,12.90
2018-12-15T12:34:08.502Z,14.30
2018-12-15T12:36:56.044Z,14.03
2018-12-15T12:39:46.016Z,13.03
2018-12-15T12:42:33.665Z,14.37
2018-12-15T12:45:20.897Z,13.90
2018-12-15T12:48:07.837Z,19.73
2018-12-15T12:50:55.476Z,15.03
2018-12-15T12:58:54.562Z,18.97
2018-12-15T13:01:42.067Z,19.35
2018-12-15T13:04:29.192Z,19.30
2018-12-15T13:07:16.812Z,15.80
2018-12-15T13:10:04.462Z,14.60
2018-12-15T13:12:52.136Z,20.05
2018-12-15T13:15:39.813Z,16.07
2018-12-15T13:18:26.938Z,14.53
2018-12-15T13:21:14.430Z,14.97
2018-12-15T13:24:01.594Z,14.17
2018-12-15T13:26:48.414Z,15.17
2018-12-15T13:29:35.642Z,15.77
2018-12-15T13:32:22.954Z,14.93
2018-12-15T13:35:10.171Z,16.00
2018-12-15T13:37:57.395Z,14.63
2018-12-15T13:40:44.503Z,14.90
2018-12-15T13:43:31.759Z,15.20
2018-12-15T13:46:20.272Z,21.92
2018-12-15T13:49:08.958Z,16.30
2018-12-15T13:51:56.226Z,15.57
2018-12-15T13:54:43.497Z,15.63
2018-12-15T13:57:30.384Z,15.17
2018-12-15T14:03:35.721Z,15.27
2018-12-15T14:06:23.754Z,16.20
2018-12-15T14:09:10.723Z,15.80
2018-12-15T14:11:59.936Z,15.07
2018-12-15T14:14:50.149Z,16.03
2018-12-15T14:17:37.525Z,16.20
2018-12-15T14:20:24.868Z,15.47
2018-12-15T14:23:15.661Z,14.97
2018-12-15T14:26:02.852Z,15.83
2018-12-15T14:28:50.723Z,15.70
2018-12-15T14:31:38.289Z,15.40
2018-12-15T14:34:25.606Z,15.80
2018-12-15T14:37:13.011Z,22.27
2018-12-15T14:40:00.609Z,17.77
2018-12-15T14:42:48.480Z,21.58
2018-12-15T14:45:36.003Z,16.73
2018-12-15T14:48:23.532Z,16.13
2018-12-15T14:51:23.296Z,16.13
2018-12-15T14:54:10.824Z,16.17
2018-12-15T14:56:57.942Z,16.47
2018-12-15T14:59:44.751Z,23.70
2018-12-15T15:05:40.811Z,17.30
2018-12-15T15:08:33.035Z,16.37
2018-12-15T15:11:23.473Z,15.77
2018-12-15T15:14:11.175Z,23.85
2018-12-15T15:17:05.589Z,23.92
2018-12-15T15:19:53.605Z,19.00
2018-12-15T15:22:41.255Z,17.37
2018-12-15T15:25:39.899Z,22.95
2018-12-15T15:28:27.766Z,20.37
2018-12-15T15:31:30.664Z,17.70
2018-12-15T15:34:20.847Z,18.27
2018-12-15T15:37:13.368Z,17.70
2018-12-15T15:40:01.198Z,16.87
2018-12-15T15:42:49.221Z,16.53
2018-12-15T15:45:37.119Z,25.00
2018-12-15T15:48:24.720Z,18.40
2018-12-15T15:51:12.251Z,18.43
2018-12-15T15:53:59.470Z,18.40
2018-12-15T15:56:47.089Z,18.20
2018-12-15T15:59:40.957Z,16.97
2018-12-15T16:02:27.963Z,17.37
2018-12-15T16:05:16.176Z,17.73
2018-12-15T16:08:04.456Z,17.20
2018-12-15T16:10:54.411Z,17.67
2018-12-15T16:13:42.617Z,25.58
2018-12-15T16:16:42.105Z,19.83
2018-12-15T16:19:29.475Z,16.83
2018-12-15T16:22:17.196Z,18.40
2018-12-15T16:25:04.357Z,17.07
2018-12-15T16:27:52.175Z,25.70
2018-12-15T16:30:43.053Z,19.07
2018-12-15T16:33:33.627Z,18.57
2018-12-15T16:36:21.293Z,17.53
2018-12-15T16:39:08.765Z,17.63
2018-12-15T16:41:55.944Z,17.67
2018-12-15T16:44:43.637Z,24.58
2018-12-15T16:47:31.142Z,18.60
2018-12-15T16:50:33.632Z,24.33
2018-12-15T16:53:20.622Z,18.43
2018-12-15T16:56:09.983Z,17.33
2018-12-15T16:58:59.113Z,16.53
2018-12-15T17:01:54.068Z,17.50
2018-12-15T17:04:41.140Z,23.60
2018-12-15T17:07:28.097Z,18.97
2018-12-15T17:10:15.866Z,17.80
2018-12-15T17:13:03.933Z,16.57
2018-12-15T17:15:52.881Z,17.47
2018-12-15T17:21:47.214Z,19.60
2018-12-15T17:24:34.468Z,18.90
2018-12-15T17:27:22.236Z,17.73
2018-12-15T17:30:09.227Z,18.63
2018-12-15T17:32:56.197Z,19.17
2018-12-15T17:35:44.916Z,20.33
2018-12-15T17:38:32.568Z,19.43
2018-12-15T17:41:19.376Z,17.83
2018-12-15T17:44:06.430Z,17.87
2018-12-15T17:46:53.743Z,18.83
2018-12-15T17:49:41.323Z,18.90
2018-12-15T17:52:28.710Z,24.25
2018-12-15T17:55:17.861Z,21.13
2018-12-15T17:58:05.253Z,18.03
2018-12-15T18:00:52.880Z,18.23
2018-12-15T18:03:40.186Z,25.60
2018-12-15T18:06:27.098Z,20.33
2018-12-15T18:09:30.956Z,19.43
2018-12-15T18:15:25.235Z,17.73
2018-12-15T18:18:17.350Z,18.57
2018-12-15T18:21:09.935Z,18.40
2018-12-15T18:23:55.106Z,18.43
2018-12-15T18:26:42.382Z,17.60
2018-12-15T18:29:29.834Z,17.37
2018-12-15T18:32:17.122Z,18.27
2018-12-15T18:35:04.368Z,18.67
2018-12-15T18:37:51.516Z,17.70
2018-12-15T18:40:39.192Z,17.00
2018-12-15T18:43:26.473Z,18.00
2018-12-15T18:46:13.683Z,17.37
2018-12-15T18:49:17.291Z,18.73
2018-12-15T18:52:13.403Z,26.87
2018-12-15T18:55:01.669Z,19.77
2018-12-15T18:57:51.977Z,26.70
2018-12-15T19:00:44.391Z,19.70
2018-12-15T19:03:31.242Z,26.30
2018-12-15T19:06:18.392Z,17.47
2018-12-15T19:09:05.307Z,18.53
2018-12-15T19:11:52.785Z,18.73
2018-12-15T19:14:43.009Z,19.30
2018-12-15T19:17:30.403Z,26.20
2018-12-15T19:20:25.710Z,20.73
2018-12-15T19:26:18.623Z,18.37
2018-12-15T19:29:05.838Z,17.60
2018-12-15T19:31:52.997Z,18.17
2018-12-15T19:34:40.405Z,19.00
2018-12-15T19:37:27.509Z,18.97
2018-12-15T19:40:15.027Z,18.70
2018-12-15T19:43:01.918Z,18.37
2018-12-15T19:45:49.403Z,28.25
2018-12-15T19:48:39.390Z,19.90
2018-12-15T19:51:29.703Z,18.90
2018-12-15T19:54:13.886Z,27.45
2018-12-15T19:57:00.751Z,20.70
2018-12-15T19:59:48.021Z,19.57
2018-12-15T20:02:35.483Z,18.73
2018-12-15T20:05:22.513Z,19.57
2018-12-15T20:08:09.961Z,19.27
2018-12-15T20:10:58.987Z,19.17
2018-12-15T20:13:46.204Z,18.33
2018-12-15T20:16:34.133Z,27.75
2018-12-15T20:19:29.850Z,28.87
2018-12-15T20:22:17.129Z,21.13
2018-12-15T20:25:04.393Z,18.63
2018-12-15T20:27:54.092Z,19.80
2018-12-15T20:30:57.239Z,19.77
2018-12-15T20:33:44.138Z,17.87
2018-12-15T20:36:33.437Z,29.17
2018-12-15T20:39:20.644Z,22.03
2018-12-15T20:42:08.120Z,21.23
2018-12-15T20:44:55.387Z,19.27
2018-12-15T20:47:42.802Z,30.10
2018-12-15T20:50:30.035Z,22.03
2018-12-15T20:53:18.061Z,21.63
2018-12-15T21:05:45.446Z,20.60
2018-12-15T21:08:34.613Z,20.37
2018-12-15T21:11:24.253Z,21.00
2018-12-15T21:14:09.260Z,20.67
2018-12-15T21:16:57.570Z,29.23
2018-12-15T21:19:48.039Z,22.90
2018-12-15T21:22:34.029Z,30.83
2018-12-15T21:25:21.440Z,23.30
2018-12-15T21:28:08.959Z,19.87
2018-12-15T21:30:56.365Z,20.50
2018-12-15T21:33:45.710Z,20.23
2018-12-15T21:36:34.660Z,21.13
2018-12-15T21:39:22.050Z,20.60
2018-12-15T21:42:09.573Z,20.87
2018-12-15T21:44:56.859Z,21.20
2018-12-15T21:47:45.408Z,19.37
2018-12-15T21:50:32.245Z,20.40
2018-12-15T21:53:19.299Z,20.40
2018-12-15T21:56:06.849Z,19.93
2018-12-15T21:58:54.327Z,21.33
2018-12-15T22:07:57.097Z,21.83
2018-12-15T22:10:43.677Z,24.27
2018-12-15T22:13:30.443Z,22.07
2018-12-15T22:19:23.174Z,20.83
2018-12-15T22:22:13.111Z,21.97
2018-12-15T22:25:10.580Z,22.13
2018-12-15T22:27:57.540Z,32.08
2018-12-15T22:30:44.373Z,22.10
2018-12-15T22:33:33.393Z,23.37
2018-12-15T22:36:20.814Z,22.57
2018-12-15T22:39:08.193Z,23.03
2018-12-15T22:41:55.030Z,21.80
2018-12-15T22:44:42.168Z,21.80
2018-12-15T22:47:29.316Z,22.67
2018-12-15T22:50:18.392Z,20.83
2018-12-15T22:53:05.490Z,22.20
2018-12-15T22:55:52.869Z,21.80
2018-12-15T22:58:39.949Z,21.50
2018-12-15T23:01:38.636Z,22.87
2018-12-15T23:04:26.926Z,22.40
2018-12-15T23:07:21.028Z,21.47
2018-12-15T23:10:11.212Z,22.27
2018-12-15T23:13:01.866Z,22.57
2018-12-15T23:15:52.282Z,20.77
2018-12-15T23:18:39.334Z,23.13
2018-12-15T23:21:27.685Z,22.80
2018-12-15T23:27:25.122Z,22.50
2018-12-15T23:30:15.099Z,20.87
2018-12-15T23:33:02.537Z,22.20
2018-12-15T23:42:12.445Z,32.85
2018-12-15T23:44:59.690Z,24.70
2018-12-15T23:47:46.995Z,23.87
2018-12-15T23:50:38.513Z,22.73
2018-12-15T23:53:26.008Z,23.70
2018-12-15T23:56:13.095Z,23.83
2018-12-15T23:59:00.058Z,32.92
